createdAt,value
2022-08-02T00:00:33.144Z,0.00
2022-08-02T00:01:32.453Z,0.00
2022-08-02T00:02:32.500Z,0.00
2022-08-02T00:03:32.637Z,0.00
2022-08-02T00:04:33.493Z,0.00
2022-08-02T00:05:32.996Z,0.00
2022-08-02T00:06:33.166Z,0.00
2022-08-02T00:07:37.602Z,0.00
2022-08-02T00:08:35.609Z,0.00
2022-08-02T00:09:33.702Z,0.00
2022-08-02T00:10:34.521Z,0.00
2022-08-02T00:11:33.986Z,0.00
2022-08-02T00:12:34.998Z,0.00
2022-08-02T00:13:34.338Z,0.00
2022-08-02T00:14:34.508Z,0.00
2022-08-02T00:15:34.620Z,0.00
2022-08-02T00:16:37.527Z,0.00
2022-08-02T00:17:35.109Z,0.00
2022-08-02T00:18:35.515Z,0.00
2022-08-02T00:19:35.367Z,0.00
2022-08-02T00:20:35.600Z,0.00
2022-08-02T00:21:36.495Z,0.00
2022-08-02T00:22:35.982Z,0.00
2022-08-02T00:24:27.969Z,0.00
2022-08-02T00:24:37.410Z,0.00
2022-08-02T00:25:55.053Z,0.00
2022-08-02T00:26:37.799Z,0.00
2022-08-02T00:27:37.503Z,0.00
2022-08-02T00:28:37.118Z,0.00
2022-08-02T00:29:42.691Z,0.00
2022-08-02T00:30:38.441Z,0.00
2022-08-02T00:31:37.676Z,0.00
2022-08-02T00:32:38.509Z,0.00
2022-08-02T00:34:26.164Z,0.00
2022-08-02T00:34:39.121Z,0.00
2022-08-02T00:35:40.798Z,0.00
2022-08-02T00:36:39.000Z,0.00
2022-08-02T00:37:38.597Z,0.00
2022-08-02T00:38:38.832Z,0.00
2022-08-02T00:39:39.500Z,0.00
2022-08-02T00:40:39.110Z,0.00
2022-08-02T00:41:39.339Z,0.00
2022-08-02T00:42:39.480Z,0.00
2022-08-02T00:43:40.017Z,0.00
2022-08-02T00:44:39.742Z,0.00
2022-08-02T00:46:03.416Z,0.00
2022-08-02T00:46:41.085Z,0.00
2022-08-02T00:47:40.340Z,0.00
2022-08-02T00:48:41.337Z,0.00
2022-08-02T00:49:41.550Z,0.00
2022-08-02T00:50:41.507Z,0.00
2022-08-02T00:51:41.506Z,0.00
2022-08-02T00:52:41.519Z,0.00
2022-08-02T00:53:41.279Z,0.00
2022-08-02T00:54:42.009Z,0.00
2022-08-02T00:55:41.609Z,0.00
2022-08-02T00:56:50.882Z,0.00
2022-08-02T00:57:42.878Z,0.00
2022-08-02T00:58:41.992Z,0.00
2022-08-02T00:59:42.234Z,0.00
2022-08-02T01:00:42.520Z,0.00
2022-08-02T01:01:55.930Z,0.00
2022-08-02T01:02:44.510Z,0.00
2022-08-02T01:03:42.849Z,0.00
2022-08-02T01:04:42.974Z,0.00
2022-08-02T01:05:52.632Z,0.00
2022-08-02T01:06:46.010Z,0.00
2022-08-02T01:07:43.455Z,0.00
2022-08-02T01:08:44.647Z,0.00
2022-08-02T01:09:44.512Z,0.00
2022-08-02T01:10:44.023Z,0.00
2022-08-02T01:11:44.044Z,0.00
2022-08-02T01:12:44.226Z,0.00
2022-08-02T01:13:44.366Z,0.00
2022-08-02T01:14:44.527Z,0.00
2022-08-02T01:15:45.023Z,0.00
2022-08-02T01:16:44.890Z,0.00
2022-08-02T01:17:45.045Z,0.00
2022-08-02T01:18:46.015Z,0.00
2022-08-02T01:19:46.003Z,0.00
2022-08-02T01:20:46.553Z,0.00
2022-08-02T01:21:46.545Z,0.00
2022-08-02T01:23:01.047Z,0.00
2022-08-02T01:24:14.528Z,0.00
2022-08-02T01:24:47.042Z,0.00
2022-08-02T01:25:46.537Z,0.00
2022-08-02T01:26:46.690Z,0.00
2022-08-02T01:27:46.830Z,0.00
2022-08-02T01:28:46.974Z,0.00
2022-08-02T01:29:47.121Z,0.00
2022-08-02T01:30:47.241Z,0.00
2022-08-02T01:31:47.405Z,0.00
2022-08-02T01:32:47.521Z,0.00
2022-08-02T01:33:47.762Z,0.00
2022-08-02T01:34:47.885Z,0.00
2022-08-02T01:35:51.123Z,0.00
2022-08-02T01:36:48.560Z,0.00
2022-08-02T01:37:49.050Z,0.00
2022-08-02T01:38:49.549Z,0.00
2022-08-02T01:39:48.769Z,0.00
2022-08-02T01:40:48.898Z,0.00
2022-08-02T01:41:49.044Z,0.00
2022-08-02T01:42:50.563Z,0.00
2022-08-02T01:43:49.410Z,0.00
2022-08-02T01:44:49.545Z,0.00
2022-08-02T01:45:50.550Z,0.00
2022-08-02T01:46:49.923Z,0.00
2022-08-02T01:47:50.073Z,0.00
2022-08-02T01:48:50.282Z,0.00
2022-08-02T01:49:50.357Z,0.00
2022-08-02T01:50:50.508Z,0.00
2022-08-02T01:51:50.664Z,0.00
2022-08-02T01:52:53.428Z,0.00
2022-08-02T01:53:51.557Z,0.00
2022-08-02T01:54:52.054Z,0.00
2022-08-02T01:55:58.266Z,0.00
2022-08-02T01:56:52.643Z,0.00
2022-08-02T01:57:51.893Z,0.00
2022-08-02T01:58:52.010Z,0.00
2022-08-02T01:59:52.168Z,0.00
2022-08-02T02:00:52.304Z,0.00
2022-08-02T02:01:52.518Z,0.00
2022-08-02T02:02:52.696Z,0.00
2022-08-02T02:03:53.576Z,0.00
2022-08-02T02:04:53.069Z,0.00
2022-08-02T02:05:53.240Z,0.00
2022-08-02T02:06:53.397Z,0.00
2022-08-02T02:07:54.065Z,0.00
2022-08-02T02:08:53.680Z,0.00
2022-08-02T02:09:53.813Z,0.00
2022-08-02T02:10:53.982Z,0.00
2022-08-02T02:12:05.182Z,0.00
2022-08-02T02:12:55.253Z,0.00
2022-08-02T02:13:54.470Z,0.00
2022-08-02T02:14:55.578Z,0.00
2022-08-02T02:15:54.822Z,0.00
2022-08-02T02:16:55.011Z,0.00
2022-08-02T02:18:12.317Z,0.00
2022-08-02T02:18:57.061Z,0.00
2022-08-02T02:19:56.060Z,0.00
2022-08-02T02:20:55.568Z,0.00
2022-08-02T02:21:55.703Z,0.00
2022-08-02T02:22:56.557Z,0.00
2022-08-02T02:23:57.065Z,0.00
2022-08-02T02:24:56.347Z,0.00
2022-08-02T02:25:56.577Z,0.00
2022-08-02T02:26:56.709Z,0.00
2022-08-02T02:27:57.566Z,0.00
2022-08-02T02:28:57.077Z,0.00
2022-08-02T02:29:58.091Z,0.00
2022-08-02T02:30:58.072Z,0.00
2022-08-02T02:31:58.562Z,0.00
2022-08-02T02:32:57.953Z,0.00
2022-08-02T02:33:58.090Z,0.00
2022-08-02T02:34:59.226Z,0.00
2022-08-02T02:35:59.066Z,0.00
2022-08-02T02:36:58.461Z,0.00
2022-08-02T02:37:58.616Z,0.00
2022-08-02T02:38:59.081Z,0.00
2022-08-02T02:39:59.564Z,0.00
2022-08-02T02:41:00.078Z,0.00
2022-08-02T02:41:59.335Z,0.00
2022-08-02T02:43:00.071Z,0.00
2022-08-02T02:43:59.725Z,0.00
2022-08-02T02:45:00.570Z,0.00
2022-08-02T02:46:00.129Z,0.00
2022-08-02T02:47:00.296Z,0.00
2022-08-02T02:48:00.459Z,0.00
2022-08-02T02:49:00.676Z,0.00
2022-08-02T02:50:00.742Z,0.00
2022-08-02T02:51:01.093Z,0.00
2022-08-02T02:52:01.118Z,0.00
2022-08-02T02:53:01.270Z,0.00
2022-08-02T02:54:32.009Z,0.00
2022-08-02T02:55:03.075Z,0.00
2022-08-02T02:56:02.941Z,0.00
2022-08-02T02:57:01.969Z,0.00
2022-08-02T02:58:03.084Z,0.00
2022-08-02T02:59:03.093Z,0.00
2022-08-02T03:00:02.390Z,0.00
2022-08-02T03:01:02.685Z,0.00
2022-08-02T03:02:03.447Z,0.00
2022-08-02T03:03:02.838Z,0.00
2022-08-02T03:04:02.956Z,0.00
2022-08-02T03:05:03.586Z,0.00
2022-08-02T03:06:03.589Z,0.00
2022-08-02T03:07:04.584Z,0.00
2022-08-02T03:08:03.703Z,0.00
2022-08-02T03:09:03.841Z,0.00
2022-08-02T03:10:05.100Z,0.00
2022-08-02T03:11:04.511Z,0.00
2022-08-02T03:12:04.444Z,0.00
2022-08-02T03:13:05.082Z,0.00
2022-08-02T03:14:04.733Z,0.00
2022-08-02T03:15:04.858Z,0.00
2022-08-02T03:16:05.022Z,0.00
2022-08-02T03:17:05.207Z,0.00
2022-08-02T03:18:05.601Z,0.00
2022-08-02T03:19:06.079Z,0.00
2022-08-02T03:20:06.581Z,0.00
2022-08-02T03:21:05.831Z,0.00
2022-08-02T03:22:06.575Z,0.00
2022-08-02T03:23:06.235Z,0.00
2022-08-02T03:24:06.420Z,0.00
2022-08-02T03:25:07.103Z,0.00
2022-08-02T03:26:07.093Z,0.00
2022-08-02T03:27:06.869Z,0.00
2022-08-02T03:28:07.581Z,0.00
2022-08-02T03:29:10.145Z,0.00
2022-08-02T03:30:07.361Z,0.00
2022-08-02T03:31:07.598Z,0.00
2022-08-02T03:32:07.773Z,0.00
2022-08-02T03:33:07.941Z,0.00
2022-08-02T03:34:08.106Z,0.00
2022-08-02T03:35:08.294Z,0.00
2022-08-02T03:36:09.430Z,0.00
2022-08-02T03:37:09.586Z,0.00
2022-08-02T03:38:09.581Z,0.00
2022-08-02T03:39:09.075Z,0.00
2022-08-02T03:40:09.254Z,0.00
2022-08-02T03:41:10.082Z,0.00
2022-08-02T03:42:09.893Z,0.00
2022-08-02T03:43:10.745Z,0.00
2022-08-02T03:44:09.886Z,0.00
2022-08-02T03:45:10.108Z,0.00
2022-08-02T03:46:11.091Z,0.00
2022-08-02T03:47:10.478Z,0.00
2022-08-02T03:48:34.383Z,0.00
2022-08-02T03:49:11.827Z,0.00
2022-08-02T03:50:10.985Z,0.00
2022-08-02T03:51:12.088Z,0.00
2022-08-02T03:52:11.636Z,0.00
2022-08-02T03:53:19.873Z,0.00
2022-08-02T03:54:12.805Z,0.00
2022-08-02T03:55:12.670Z,0.00
2022-08-02T03:56:12.170Z,0.00
2022-08-02T03:57:12.604Z,0.00
2022-08-02T03:58:12.502Z,0.00
2022-08-02T03:59:12.689Z,0.00
2022-08-02T04:00:13.592Z,0.00
2022-08-02T04:01:13.064Z,0.00
2022-08-02T04:02:13.510Z,5.62
2022-08-02T04:03:13.403Z,5.62
2022-08-02T04:04:14.738Z,5.62
2022-08-02T04:05:14.593Z,5.62
2022-08-02T04:06:14.097Z,5.62
2022-08-02T04:07:14.321Z,5.62
2022-08-02T04:08:35.760Z,5.62
2022-08-02T04:09:16.106Z,5.62
2022-08-02T04:10:15.107Z,5.62
2022-08-02T04:11:15.593Z,5.62
2022-08-02T04:12:15.204Z,5.62
2022-08-02T04:13:15.353Z,5.62
2022-08-02T04:14:15.547Z,5.62
2022-08-02T04:15:15.724Z,11.25
2022-08-02T04:16:15.899Z,11.25
2022-08-02T04:17:16.108Z,11.25
2022-08-02T04:18:17.095Z,11.25
2022-08-02T04:19:16.455Z,11.25
2022-08-02T04:20:17.101Z,16.88
2022-08-02T04:21:17.602Z,16.88
2022-08-02T04:22:16.976Z,16.88
2022-08-02T04:23:17.136Z,16.88
2022-08-02T04:24:18.964Z,16.88
2022-08-02T04:25:18.082Z,22.50
2022-08-02T04:26:19.106Z,16.88
2022-08-02T04:27:49.373Z,16.88
2022-08-02T04:28:19.110Z,16.88
2022-08-02T04:29:19.300Z,16.88
2022-08-02T04:30:18.567Z,16.88
2022-08-02T04:31:18.737Z,16.88
2022-08-02T04:32:19.878Z,22.50
2022-08-02T04:33:19.007Z,22.50
2022-08-02T04:34:20.101Z,22.50
2022-08-02T04:35:20.147Z,28.12
2022-08-02T04:36:31.099Z,28.12
2022-08-02T04:37:21.622Z,28.12
2022-08-02T04:38:19.843Z,28.12
2022-08-02T04:39:19.995Z,28.12
2022-08-02T04:40:20.125Z,33.75
2022-08-02T04:41:20.277Z,33.75
2022-08-02T04:42:21.102Z,33.75
2022-08-02T04:43:20.586Z,33.75
2022-08-02T04:44:20.760Z,33.75
2022-08-02T04:45:20.954Z,39.38
2022-08-02T04:46:21.124Z,39.38
2022-08-02T04:47:54.103Z,39.38
2022-08-02T04:48:23.421Z,45.00
2022-08-02T04:49:21.707Z,45.00
2022-08-02T04:50:21.802Z,45.00
2022-08-02T04:51:22.114Z,45.00
2022-08-02T04:52:23.107Z,45.00
2022-08-02T04:53:23.132Z,50.62
2022-08-02T04:54:22.616Z,56.25
2022-08-02T04:55:22.640Z,56.25
2022-08-02T04:56:22.762Z,56.25
2022-08-02T04:57:23.607Z,56.25
2022-08-02T04:58:40.512Z,67.50
2022-08-02T04:59:25.345Z,129.38
2022-08-02T05:00:23.609Z,84.38
2022-08-02T05:01:23.770Z,123.75
2022-08-02T05:02:24.897Z,84.38
2022-08-02T05:03:25.104Z,67.50
2022-08-02T05:04:24.375Z,67.50
2022-08-02T05:05:24.503Z,73.12
2022-08-02T05:06:24.654Z,73.12
2022-08-02T05:07:25.609Z,73.12
2022-08-02T05:08:24.953Z,73.12
2022-08-02T05:09:25.112Z,78.75
2022-08-02T05:10:25.234Z,78.75
2022-08-02T05:11:34.337Z,78.75
2022-08-02T05:12:26.600Z,78.75
2022-08-02T05:13:25.821Z,78.75
2022-08-02T05:14:25.953Z,78.75
2022-08-02T05:15:28.312Z,84.38
2022-08-02T05:16:31.651Z,84.38
2022-08-02T05:17:27.131Z,84.38
2022-08-02T05:18:26.618Z,84.38
2022-08-02T05:19:26.771Z,84.38
2022-08-02T05:20:26.925Z,84.38
2022-08-02T05:21:27.095Z,84.38
2022-08-02T05:22:27.628Z,84.38
2022-08-02T05:23:27.398Z,84.38
2022-08-02T05:24:28.119Z,90.00
2022-08-02T05:25:27.798Z,95.62
2022-08-02T05:26:27.980Z,135.00
2022-08-02T05:27:29.139Z,185.62
2022-08-02T05:28:29.114Z,129.38
2022-08-02T05:29:28.538Z,118.12
2022-08-02T05:30:29.129Z,101.25
2022-08-02T05:31:28.862Z,101.25
2022-08-02T05:32:29.624Z,106.88
2022-08-02T05:33:29.236Z,106.88
2022-08-02T05:34:29.389Z,101.25
2022-08-02T05:35:29.528Z,101.25
2022-08-02T05:36:29.668Z,101.25
2022-08-02T05:37:32.106Z,101.25
2022-08-02T05:38:30.014Z,106.88
2022-08-02T05:39:31.890Z,106.88
2022-08-02T05:40:30.380Z,112.50
2022-08-02T05:41:30.485Z,106.88
2022-08-02T05:42:30.644Z,101.25
2022-08-02T05:43:31.633Z,106.88
2022-08-02T05:44:31.627Z,112.50
2022-08-02T05:45:31.179Z,112.50
2022-08-02T05:46:31.345Z,112.50
2022-08-02T05:47:31.499Z,112.50
2022-08-02T05:48:32.621Z,118.12
2022-08-02T05:49:32.736Z,118.12
2022-08-02T05:50:32.052Z,112.50
2022-08-02T05:51:33.123Z,112.50
2022-08-02T05:52:32.451Z,118.12
2022-08-02T05:53:32.621Z,118.12
2022-08-02T05:54:33.653Z,123.75
2022-08-02T05:55:33.040Z,112.50
2022-08-02T05:56:33.240Z,106.88
2022-08-02T05:57:34.128Z,101.25
2022-08-02T05:58:34.631Z,78.75
2022-08-02T05:59:33.804Z,73.12
2022-08-02T06:00:33.979Z,73.12
2022-08-02T06:01:35.166Z,73.12
2022-08-02T06:02:35.131Z,73.12
2022-08-02T06:03:34.521Z,61.88
2022-08-02T06:04:34.712Z,61.88
2022-08-02T06:05:35.651Z,73.12
2022-08-02T06:06:35.052Z,78.75
2022-08-02T06:07:35.237Z,78.75
2022-08-02T06:08:35.391Z,90.00
2022-08-02T06:09:35.548Z,106.88
2022-08-02T06:10:36.147Z,123.75
2022-08-02T06:11:36.634Z,180.00
2022-08-02T06:12:37.129Z,309.38
2022-08-02T06:13:36.402Z,264.38
2022-08-02T06:14:37.146Z,129.38
2022-08-02T06:15:38.922Z,118.12
2022-08-02T06:16:42.145Z,157.50
2022-08-02T06:17:41.878Z,151.88
2022-08-02T06:18:38.205Z,151.88
2022-08-02T06:19:51.708Z,163.12
2022-08-02T06:20:39.146Z,168.75
2022-08-02T06:22:35.897Z,163.12
2022-08-02T06:22:38.090Z,168.75
2022-08-02T06:23:38.109Z,163.12
2022-08-02T06:24:38.649Z,163.12
2022-08-02T06:25:48.144Z,168.75
2022-08-02T06:26:39.542Z,191.25
2022-08-02T06:27:39.165Z,168.75
2022-08-02T06:28:39.908Z,157.50
2022-08-02T06:29:39.217Z,180.00
2022-08-02T06:30:40.133Z,331.88
2022-08-02T06:31:39.515Z,658.12
2022-08-02T06:32:39.676Z,500.62
2022-08-02T06:33:39.817Z,168.75
2022-08-02T06:34:40.638Z,168.75
2022-08-02T06:35:40.137Z,174.38
2022-08-02T06:36:40.276Z,174.38
2022-08-02T06:37:40.650Z,174.38
2022-08-02T06:38:40.698Z,180.00
2022-08-02T06:39:41.642Z,180.00
2022-08-02T06:40:41.011Z,180.00
2022-08-02T06:41:41.179Z,180.00
2022-08-02T06:42:41.366Z,185.62
2022-08-02T06:43:41.574Z,185.62
2022-08-02T06:44:48.101Z,185.62
2022-08-02T06:45:44.646Z,191.25
2022-08-02T06:47:09.609Z,196.88
2022-08-02T06:47:43.272Z,196.88
2022-08-02T06:48:42.667Z,196.88
2022-08-02T06:49:51.377Z,202.50
2022-08-02T06:50:43.701Z,196.88
2022-08-02T06:51:43.696Z,202.50
2022-08-02T06:52:43.072Z,196.88
2022-08-02T06:53:43.658Z,191.25
2022-08-02T06:54:44.146Z,196.88
2022-08-02T06:55:44.421Z,202.50
2022-08-02T06:56:43.849Z,213.75
2022-08-02T06:57:44.011Z,213.75
2022-08-02T06:58:44.239Z,225.00
2022-08-02T06:59:44.385Z,230.62
2022-08-02T07:00:45.160Z,236.25
2022-08-02T07:01:44.860Z,241.88
2022-08-02T07:02:45.650Z,253.12
2022-08-02T07:03:45.679Z,264.38
2022-08-02T07:04:46.157Z,264.38
2022-08-02T07:05:45.548Z,270.00
2022-08-02T07:06:46.166Z,270.00
2022-08-02T07:07:45.932Z,270.00
2022-08-02T07:09:04.931Z,270.00
2022-08-02T07:09:56.716Z,264.38
2022-08-02T07:10:47.453Z,258.75
2022-08-02T07:11:47.169Z,258.75
2022-08-02T07:12:47.650Z,258.75
2022-08-02T07:13:47.130Z,253.12
2022-08-02T07:14:48.154Z,253.12
2022-08-02T07:15:49.171Z,253.12
2022-08-02T07:16:48.183Z,253.12
2022-08-02T07:17:47.820Z,253.12
2022-08-02T07:18:47.964Z,247.50
2022-08-02T07:19:48.111Z,247.50
2022-08-02T07:20:48.234Z,247.50
2022-08-02T07:21:59.526Z,258.75
2022-08-02T07:22:49.619Z,264.38
2022-08-02T07:23:49.652Z,258.75
2022-08-02T07:24:48.889Z,258.75
2022-08-02T07:26:03.388Z,258.75
2022-08-02T07:27:10.684Z,270.00
2022-08-02T07:27:51.383Z,270.00
2022-08-02T07:28:50.158Z,275.62
2022-08-02T07:29:49.781Z,275.62
2022-08-02T07:30:49.936Z,270.00
2022-08-02T07:31:50.661Z,270.00
2022-08-02T07:32:50.315Z,270.00
2022-08-02T07:33:51.170Z,270.00
2022-08-02T07:34:53.619Z,270.00
2022-08-02T07:35:51.851Z,270.00
2022-08-02T07:36:51.001Z,270.00
2022-08-02T07:37:54.984Z,270.00
2022-08-02T07:38:52.409Z,270.00
2022-08-02T07:39:52.199Z,264.38
2022-08-02T07:40:51.686Z,264.38
2022-08-02T07:41:52.666Z,270.00
2022-08-02T07:42:52.119Z,275.62
2022-08-02T07:43:52.192Z,264.38
2022-08-02T07:44:52.325Z,264.38
2022-08-02T07:46:00.830Z,264.38
2022-08-02T07:46:53.634Z,258.75
2022-08-02T07:47:52.867Z,253.12
2022-08-02T07:48:53.040Z,298.12
2022-08-02T07:49:54.163Z,298.12
2022-08-02T07:50:53.680Z,286.88
2022-08-02T07:51:53.569Z,286.88
2022-08-02T07:52:57.804Z,286.88
2022-08-02T07:54:02.517Z,275.62
2022-08-02T07:54:55.062Z,315.00
2022-08-02T07:55:54.690Z,331.88
2022-08-02T07:56:58.460Z,455.62
2022-08-02T07:57:55.606Z,517.50
2022-08-02T07:58:54.732Z,281.25
2022-08-02T07:59:55.181Z,275.62
2022-08-02T08:00:55.099Z,281.25
2022-08-02T08:01:56.205Z,253.12
2022-08-02T08:02:58.824Z,258.75
2022-08-02T08:03:56.531Z,253.12
2022-08-02T08:04:55.783Z,258.75
2022-08-02T08:05:56.687Z,281.25
2022-08-02T08:06:56.078Z,258.75
2022-08-02T08:07:57.171Z,247.50
2022-08-02T08:08:56.407Z,253.12
2022-08-02T08:09:56.806Z,258.75
2022-08-02T08:10:56.707Z,264.38
2022-08-02T08:11:57.862Z,264.38
2022-08-02T08:12:57.675Z,270.00
2022-08-02T08:13:57.196Z,270.00
2022-08-02T08:14:57.684Z,264.38
2022-08-02T08:15:57.690Z,258.75
2022-08-02T08:16:58.676Z,264.38
2022-08-02T08:17:57.903Z,264.38
2022-08-02T08:18:58.689Z,253.12
2022-08-02T08:19:58.174Z,258.75
2022-08-02T08:20:59.176Z,253.12
2022-08-02T08:21:59.180Z,253.12
2022-08-02T08:22:58.720Z,253.12
2022-08-02T08:23:58.880Z,253.12
2022-08-02T08:24:59.697Z,253.12
2022-08-02T08:25:59.710Z,247.50
2022-08-02T08:26:59.465Z,253.12
2022-08-02T08:28:00.179Z,253.12
2022-08-02T08:29:00.223Z,253.12
2022-08-02T08:30:00.022Z,253.12
2022-08-02T08:31:00.683Z,253.12
2022-08-02T08:32:00.347Z,247.50
2022-08-02T08:33:01.179Z,247.50
2022-08-02T08:34:00.688Z,247.50
2022-08-02T08:35:01.697Z,241.88
2022-08-02T08:36:02.495Z,241.88
2022-08-02T08:37:01.274Z,241.88
2022-08-02T08:38:07.283Z,236.25
2022-08-02T08:39:03.676Z,230.62
2022-08-02T08:40:01.911Z,230.62
2022-08-02T08:41:02.685Z,236.25
2022-08-02T08:42:02.689Z,236.25
2022-08-02T08:43:02.700Z,230.62
2022-08-02T08:44:02.468Z,230.62
2022-08-02T08:45:02.720Z,230.62
2022-08-02T08:46:02.763Z,225.00
2022-08-02T08:47:03.684Z,225.00
2022-08-02T08:48:03.689Z,219.38
2022-08-02T08:49:04.232Z,219.38
2022-08-02T08:50:03.527Z,213.75
2022-08-02T08:51:03.706Z,286.88
2022-08-02T08:52:03.833Z,208.12
2022-08-02T08:53:03.996Z,213.75
2022-08-02T08:54:04.692Z,213.75
2022-08-02T08:55:04.310Z,219.38
2022-08-02T08:56:04.514Z,213.75
2022-08-02T08:57:04.681Z,219.38
2022-08-02T08:58:04.855Z,208.12
2022-08-02T08:59:05.085Z,208.12
2022-08-02T09:00:05.144Z,213.75
2022-08-02T09:01:05.385Z,202.50
2022-08-02T09:02:17.852Z,230.62
2022-08-02T09:03:07.222Z,196.88
2022-08-02T09:04:05.699Z,208.12
2022-08-02T09:05:05.864Z,202.50
2022-08-02T09:06:06.039Z,213.75
2022-08-02T09:07:06.210Z,213.75
2022-08-02T09:08:08.101Z,208.12
2022-08-02T09:09:06.603Z,208.12
2022-08-02T09:10:06.756Z,208.12
2022-08-02T09:11:06.914Z,208.12
2022-08-02T09:12:07.697Z,202.50
2022-08-02T09:13:38.049Z,208.12
2022-08-02T09:14:08.368Z,286.88
2022-08-02T09:15:07.490Z,247.50
2022-08-02T09:16:12.597Z,219.38
2022-08-02T09:17:08.812Z,213.75
2022-08-02T09:18:07.943Z,219.38
2022-08-02T09:19:08.108Z,213.75
2022-08-02T09:20:08.299Z,208.12
2022-08-02T09:21:09.196Z,213.75
2022-08-02T09:22:09.581Z,208.12
2022-08-02T09:23:09.700Z,202.50
2022-08-02T09:24:08.947Z,208.12
2022-08-02T09:25:09.107Z,208.12
2022-08-02T09:26:09.254Z,208.12
2022-08-02T09:27:09.395Z,208.12
2022-08-02T09:28:09.587Z,208.12
2022-08-02T09:29:10.730Z,208.12
2022-08-02T09:30:12.136Z,202.50
2022-08-02T09:31:10.080Z,202.50
2022-08-02T09:32:10.572Z,202.50
2022-08-02T09:33:10.362Z,202.50
2022-08-02T09:34:10.520Z,146.25
2022-08-02T09:35:10.713Z,151.88
2022-08-02T09:36:10.898Z,151.88
2022-08-02T09:37:11.710Z,208.12
2022-08-02T09:38:11.263Z,168.75
2022-08-02T09:39:11.415Z,202.50
2022-08-02T09:40:11.566Z,196.88
2022-08-02T09:41:11.714Z,140.62
2022-08-02T09:42:12.074Z,185.62
2022-08-02T09:43:12.216Z,196.88
2022-08-02T09:44:15.880Z,196.88
2022-08-02T09:45:13.348Z,196.88
2022-08-02T09:46:12.468Z,196.88
2022-08-02T09:47:13.209Z,196.88
2022-08-02T09:48:13.220Z,146.25
2022-08-02T09:49:13.318Z,168.75
2022-08-02T09:50:15.143Z,196.88
2022-08-02T09:51:15.212Z,202.50
2022-08-02T09:52:14.710Z,202.50
2022-08-02T09:53:14.231Z,196.88
2022-08-02T09:54:13.888Z,196.88
2022-08-02T09:55:14.031Z,191.25
2022-08-02T09:56:29.647Z,191.25
2022-08-02T09:57:16.217Z,191.25
2022-08-02T09:58:14.592Z,191.25
2022-08-02T09:59:15.238Z,174.38
2022-08-02T10:00:23.271Z,191.25
2022-08-02T10:01:16.153Z,185.62
2022-08-02T10:02:17.940Z,196.88
2022-08-02T10:03:22.081Z,196.88
2022-08-02T10:04:19.926Z,191.25
2022-08-02T10:05:17.842Z,185.62
2022-08-02T10:06:15.948Z,185.62
2022-08-02T10:07:16.101Z,180.00
2022-08-02T10:08:16.241Z,191.25
2022-08-02T10:09:16.391Z,208.12
2022-08-02T10:10:16.537Z,202.50
2022-08-02T10:11:17.671Z,202.50
2022-08-02T10:12:17.722Z,230.62
2022-08-02T10:13:21.592Z,213.75
2022-08-02T10:14:17.281Z,230.62
2022-08-02T10:15:17.440Z,191.25
2022-08-02T10:16:17.595Z,253.12
2022-08-02T10:17:18.721Z,292.50
2022-08-02T10:18:37.530Z,196.88
2022-08-02T10:19:38.841Z,247.50
2022-08-02T10:20:19.407Z,196.88
2022-08-02T10:21:19.223Z,225.00
2022-08-02T10:22:19.896Z,208.12
2022-08-02T10:23:19.723Z,202.50
2022-08-02T10:24:19.734Z,196.88
2022-08-02T10:25:19.238Z,191.25
2022-08-02T10:26:19.266Z,191.25
2022-08-02T10:27:19.417Z,196.88
2022-08-02T10:28:19.544Z,191.25
2022-08-02T10:29:19.708Z,213.75
2022-08-02T10:30:19.836Z,213.75
2022-08-02T10:31:20.733Z,202.50
2022-08-02T10:32:20.092Z,208.12
2022-08-02T10:33:20.235Z,191.25
2022-08-02T10:34:20.414Z,191.25
2022-08-02T10:35:26.258Z,191.25
2022-08-02T10:36:22.755Z,185.62
2022-08-02T10:37:20.958Z,185.62
2022-08-02T10:38:21.099Z,140.62
2022-08-02T10:39:22.247Z,191.25
2022-08-02T10:40:21.364Z,135.00
2022-08-02T10:41:22.269Z,185.62
2022-08-02T10:42:21.633Z,180.00
2022-08-02T10:43:21.773Z,185.62
2022-08-02T10:44:24.373Z,157.50
2022-08-02T10:45:22.168Z,163.12
2022-08-02T10:46:23.243Z,140.62
2022-08-02T10:47:22.484Z,146.25
2022-08-02T10:48:23.231Z,135.00
2022-08-02T10:49:39.310Z,135.00
2022-08-02T10:50:25.184Z,146.25
2022-08-02T10:51:24.589Z,151.88
2022-08-02T10:52:23.446Z,225.00
2022-08-02T10:53:23.651Z,208.12
2022-08-02T10:54:24.736Z,185.62
2022-08-02T10:55:23.993Z,196.88
2022-08-02T10:56:24.299Z,247.50
2022-08-02T10:57:24.328Z,219.38
2022-08-02T10:58:26.142Z,202.50
2022-08-02T10:59:24.638Z,135.00
2022-08-02T11:00:25.773Z,191.25
2022-08-02T11:01:25.292Z,180.00
2022-08-02T11:02:25.128Z,135.00
2022-08-02T11:03:25.291Z,213.75
2022-08-02T11:04:26.237Z,225.00
2022-08-02T11:05:25.760Z,202.50
2022-08-02T11:06:26.474Z,230.62
2022-08-02T11:07:26.958Z,230.62
2022-08-02T11:08:26.099Z,225.00
2022-08-02T11:09:31.450Z,225.00
2022-08-02T11:10:29.249Z,236.25
2022-08-02T11:11:54.027Z,213.75
2022-08-02T11:12:27.724Z,191.25
2022-08-02T11:13:26.864Z,185.62
2022-08-02T11:14:27.276Z,196.88
2022-08-02T11:15:27.158Z,185.62
2022-08-02T11:16:28.242Z,202.50
2022-08-02T11:17:27.482Z,196.88
2022-08-02T11:18:28.647Z,180.00
2022-08-02T11:19:27.784Z,225.00
2022-08-02T11:20:27.918Z,219.38
2022-08-02T11:21:29.065Z,219.38
2022-08-02T11:22:28.178Z,202.50
2022-08-02T11:23:44.861Z,213.75
2022-08-02T11:24:29.770Z,202.50
2022-08-02T11:25:43.043Z,202.50
2022-08-02T11:26:29.744Z,202.50
2022-08-02T11:27:29.732Z,202.50
2022-08-02T11:28:30.101Z,191.25
2022-08-02T11:29:29.305Z,174.38
2022-08-02T11:30:29.450Z,185.62
2022-08-02T11:31:30.642Z,191.25
2022-08-02T11:32:30.554Z,191.25
2022-08-02T11:33:30.751Z,191.25
2022-08-02T11:34:37.032Z,191.25
2022-08-02T11:35:31.357Z,191.25
2022-08-02T11:36:31.723Z,185.62
2022-08-02T11:37:30.846Z,196.88
2022-08-02T11:38:30.996Z,180.00
2022-08-02T11:39:31.139Z,180.00
2022-08-02T11:40:35.407Z,174.38
2022-08-02T11:41:46.395Z,118.12
2022-08-02T11:42:33.261Z,157.50
2022-08-02T11:43:31.845Z,112.50
2022-08-02T11:44:31.971Z,191.25
2022-08-02T11:45:32.117Z,191.25
2022-08-02T11:46:32.274Z,208.12
2022-08-02T11:47:32.402Z,191.25
2022-08-02T11:48:32.536Z,151.88
2022-08-02T11:49:32.849Z,180.00
2022-08-02T11:50:33.753Z,112.50
2022-08-02T11:51:33.280Z,123.75
2022-08-02T11:52:33.391Z,185.62
2022-08-02T11:53:33.528Z,202.50
2022-08-02T11:54:35.295Z,202.50
2022-08-02T11:55:33.795Z,208.12
2022-08-02T11:56:33.967Z,208.12
2022-08-02T11:58:02.782Z,219.38
2022-08-02T11:58:35.270Z,230.62
2022-08-02T11:59:34.768Z,225.00
2022-08-02T12:00:35.285Z,230.62
2022-08-02T12:01:42.011Z,219.38
2022-08-02T12:02:35.836Z,213.75
2022-08-02T12:03:35.021Z,213.75
2022-08-02T12:04:35.762Z,208.12
2022-08-02T12:06:37.592Z,213.75
2022-08-02T12:07:36.106Z,213.75
2022-08-02T12:08:35.971Z,208.12
2022-08-02T12:09:40.910Z,163.12
2022-08-02T12:10:39.274Z,163.12
2022-08-02T12:11:38.757Z,202.50
2022-08-02T12:12:36.784Z,191.25
2022-08-02T12:13:36.801Z,196.88
2022-08-02T12:14:36.925Z,191.25
2022-08-02T12:15:37.081Z,185.62
2022-08-02T12:16:37.223Z,185.62
2022-08-02T12:17:37.778Z,168.75
2022-08-02T12:18:38.524Z,168.75
2022-08-02T12:19:38.271Z,168.75
2022-08-02T12:20:38.273Z,168.75
2022-08-02T12:21:37.890Z,174.38
2022-08-02T12:22:41.826Z,135.00
2022-08-02T12:23:39.201Z,140.62
2022-08-02T12:24:40.276Z,146.25
2022-08-02T12:25:39.270Z,180.00
2022-08-02T12:26:38.633Z,185.62
2022-08-02T12:27:38.793Z,151.88
2022-08-02T12:28:38.960Z,174.38
2022-08-02T12:29:57.980Z,185.62
2022-08-02T12:30:40.302Z,151.88
2022-08-02T12:31:57.635Z,163.12
2022-08-02T12:32:41.334Z,180.00
2022-08-02T12:33:39.930Z,185.62
2022-08-02T12:34:40.777Z,180.00
2022-08-02T12:35:40.771Z,185.62
2022-08-02T12:36:40.500Z,174.38
2022-08-02T12:37:40.636Z,168.75
2022-08-02T12:38:40.774Z,174.38
2022-08-02T12:39:40.912Z,163.12
2022-08-02T12:40:41.787Z,163.12
2022-08-02T12:41:51.975Z,163.12
2022-08-02T12:42:42.599Z,135.00
2022-08-02T12:43:41.579Z,135.00
2022-08-02T12:44:41.793Z,129.38
2022-08-02T12:45:47.067Z,123.75
2022-08-02T12:46:45.734Z,129.38
2022-08-02T12:47:43.437Z,140.62
2022-08-02T12:48:56.509Z,140.62
2022-08-02T12:49:44.837Z,140.62